Grand Prairie, TX (75054)

12:45 PM CST on December 03, 2016 (GMT -0600)
MesoWest | | Change Station

Elev 437 ft 32.75 °N, 96.94 °W | Updated 2 hours ago

Overcast
Overcast
51.0 °F
Feels Like 51.0 °F
N
0.0
Wind Variable Wind from North
Gusts 0.0 mph

Today
High -- | Low -- °F
--% Chance of Precip.
Yesterday
High -- | Low -- °F
Precip. -- in
Pressure 30.04 in
Visibility 10.0 miles
Clouds Overcast 900 ft
Dew Point Not available.
Humidity Not available.
Rainfall in
Snow Depth Not available.
7:14 AM 5:22 PM
Waxing Crescent, 16% visible
SPECI KGKY 031828Z 04006KT 10SM -RA OVC009 10/08 A3004 RMK AO2 RAE07B25 CIG 005V012 P0000 T01000083
Pressure 30.04 in
Visibility 10.0 miles
Clouds Overcast 900 ft
Dew Point Not available.
Humidity Not available.
Rainfall in
Snow Depth Not available.
7:14 AM 5:22 PM
Waxing Crescent, 16% visible
SPECI KGKY 031828Z 04006KT 10SM -RA OVC009 10/08 A3004 RMK AO2 RAE07B25 CIG 005V012 P0000 T01000083

10-Day Weather Forecast

Almanac

Astronomy

Dec. 03, 2016 Rise Set
Actual Time
Civil Twilight
Nautical Twilight
Astronomical Twilight
Moon
Length of Visible Light
Length of Day
Tomorrow will be .
, % of the Moon is Illuminated

Today's Extremes

State Highs State Lows

Community

WunderPhotos

Upload Photos

1,955,469 photos uploaded!

WunderBlog® & News

Nearby

Air Quality

  Air Quality AQ Index Pollutant
Not available.

Snow Depth

Station Depth Elevation

Earthquake Activity

City Distance Mag. Time & Date
Minimum magnitude displayed is 2.5.

Coastal Water Temperatures

Place Temperature

Stations

Nearby Weather Stations

Station Location Temp. Windchill Dew Point Humidity Wind Precip. Elev Updated Type
                   

Watches & Warnings

There are currently no watches in effect.